Glendale, Missouri
Current Conditions -  °F | °C
As of 6:51 PM on Saturday 22 Nov 2014 (Local Time) from KSTL Reporting Station
Overcast Overcast  
Wind Chill: 55°   Ceiling: 5000
Heat Index: 55°   Visibility: 10mi
Dew Point: 50°   Wind: 12mph
Humidity: 83%   Direction: 170°S
Pressure: 29.93"   Gusts: NA
Location:  38.5796°N, 90.4197°W
Report Text: KSTL 230051Z 17010KT 10SM SCT016 BKN050 OVC090 13/10 A2993 RMK AO2 RAE49 SLP136 P0002 T01280100
Loading
Personal Weather Stations






























Interactive Weather Map New forecast layout! Learn more

10-Day Weather Forecast

Advertisements
Track Severe Weather on mobile